WetterOnline ( https://www.wetteronline.de )

Wetter aktuell Leck

Aktuelles Wetter: Leck (17m)

6-stündlich | Neueste Meldungen
Ortszeit Temperatur Wetter
Fr, 23.02. 1:00 9.4° C wolkig
Do, 22.02. 19:00 9.8° C bedeckt
Do, 22.02. 13:00 8.5° C bedeckt
Do, 22.02. 7:00 7.4° C Sprühregen
Do, 22.02. 1:00 7.4° C Sprühregen
Mi, 21.02. 19:00 8.4° C bewölkt
Mi, 21.02. 13:00 8.2° C bedeckt
Mi, 21.02. 7:00 6.4° C wolkenlos
Ortszeit Temperatur Wetter
Fr, 23.02. 4:30 6.5° C bewölkt
Fr, 23.02. 4:20 6.5° C bewölkt
Fr, 23.02. 4:10 6.3° C bewölkt
Fr, 23.02. 4:00 6.0° C wolkig
Fr, 23.02. 3:50 6.0° C wolkig
Fr, 23.02. 3:40 5.1° C leichter Regen
Fr, 23.02. 3:30 5.2° C leichter Regen
Fr, 23.02. 3:00 5.2° C leichter Regen
Fr, 23.02. 2:30 5.1° C starker Regen
Fr, 23.02. 2:00 5.3° C bedeckt
Fr, 23.02. 1:30 7.0° C bewölkt
Ortszeit Relative Feuchte Sichtweite
Fr, 23.02. 1:00 77% 40 km
Do, 22.02. 19:00 88% 26 km
Do, 22.02. 13:00 97% 3.4 km
Do, 22.02. 7:00 100% 1.3 km
Do, 22.02. 1:00 95% 6 km
Mi, 21.02. 19:00 87% 8 km
Mi, 21.02. 13:00 87% 22 km
Mi, 21.02. 7:00 91% 16 km
Ortszeit Relative Feuchte Sichtweite
Fr, 23.02. 4:30 76% 22 km
Fr, 23.02. 4:20 76% -
Fr, 23.02. 4:10 79% -
Fr, 23.02. 4:00 73% 28 km
Fr, 23.02. 3:50 73% -
Fr, 23.02. 3:40 86% -
Fr, 23.02. 3:30 87% 11 km
Fr, 23.02. 3:00 89% 9 km
Fr, 23.02. 2:30 91% 6 km
Fr, 23.02. 2:00 90% 5.0 km
Fr, 23.02. 1:30 78% 30 km
Ortszeit Niederschlagsmenge Niederschlagsart
Fr, 23.02. 1:00 1 l/m2 in 6 Std. Regen
Do, 22.02. 19:00 0.3 l/m2 in 12 Std. Sprühregen
Do, 22.02. 13:00 0.2 l/m2 in 6 Std. Sprühregen
Do, 22.02. 7:00 6 l/m2 in 12 Std. Regen
Do, 22.02. 1:00 4 l/m2 in 6 Std. Regen
Mi, 21.02. 19:00 0.1 l/m2 in 12 Std. Regen
Mi, 21.02. 13:00 0.0 l/m2 in 6 Std. -
Mi, 21.02. 7:00 0.8 l/m2 in 12 Std. Regen
Ortszeit Niederschlagsmenge Niederschlagsart
Fr, 23.02. 4:30 0.0 l/m2 in 30 Min -
Fr, 23.02. 4:20 keine Meldung -
Fr, 23.02. 4:10 keine Meldung -
Fr, 23.02. 4:00 0.3 l/m2 in 1 Std. Regen
Fr, 23.02. 3:50 keine Meldung -
Fr, 23.02. 3:40 keine Meldung -
Fr, 23.02. 3:30 0.1 l/m2 in 30 Min -
Fr, 23.02. 3:00 0.5 l/m2 in 1 Std. Regen, Niederschlag
Fr, 23.02. 2:30 0.3 l/m2 in 30 Min -
Fr, 23.02. 2:00 <0.05 l/m2 in 1 Std. Sprühregen, Niederschlag
Fr, 23.02. 1:30 0.0 l/m2 in 30 Min -
Ortszeit Stärke Spitze Richtung
km/h Bft. km/h Grad Sektor
Fr, 23.02. 1:00 47 6 72 200° S
Do, 22.02. 19:00 24 4 35 130° SO
Do, 22.02. 13:00 11 2 29 170° S
Do, 22.02. 7:00 15 3 44 200° S
Do, 22.02. 1:00 31 5 54 180° S
Mi, 21.02. 19:00 18 3 36 170° S
Mi, 21.02. 13:00 18 3 32 220° SW
Mi, 21.02. 7:00 18 3 50 260° W
Ortszeit Stärke Spitze Richtung
km/h Bft. km/h Grad Sektor
Fr, 23.02. 4:30 48 6 72 240° SW
Fr, 23.02. 4:20 48 6 - 240° SW
Fr, 23.02. 4:10 48 6 - 240° SW
Fr, 23.02. 4:00 48 6 93 240° SW
Fr, 23.02. 3:50 48 6 - 240° SW
Fr, 23.02. 3:40 50 7 - 240° SW
Fr, 23.02. 3:30 61 7 94 230° SW
Fr, 23.02. 3:00 58 7 97 230° SW
Fr, 23.02. 2:30 79 9 97 230° SW
Fr, 23.02. 2:00 68 8 97 210° SW
Fr, 23.02. 1:30 72 8 90 200° S
Ortszeit Untergrenze Bedeckung Gattung
total tief tief mittel hoch
Fr, 23.02. 1:00 990 m 8/8 3/8 - - -
Do, 22.02. 19:00 720 m 8/8 8/8 - - -
Do, 22.02. 13:00 180 m 8/8 8/8 - - -
Do, 22.02. 7:00 30 m 8/8 8/8 - - -
Do, 22.02. 1:00 240 m 8/8 8/8 - - -
Mi, 21.02. 19:00 540 m 7/8 7/8 - - -
Mi, 21.02. 13:00 300 m 8/8 8/8 - - -
Mi, 21.02. 7:00 - 0/8 0/8 - - -
Ortszeit Bedeckungsgrad in Achtel und Wolkenuntergrenze
Fr, 23.02. 4:30 5(1020m) 7(2700m) 7(3300m)
Fr, 23.02. 4:20 5(1020m) 7(2700m) 7(3300m)
Fr, 23.02. 4:10 7
Fr, 23.02. 4:00 1(330m) 5(1440m) 6(1800m)
Fr, 23.02. 3:50 1(330m) 5(1440m) 6(1800m)
Fr, 23.02. 3:40 6
Fr, 23.02. 3:30 3(480m) 6(840m) 7(1140m)
Fr, 23.02. 3:00 6(480m) 7(720m)
Fr, 23.02. 2:30 6(300m) 7(540m)
Fr, 23.02. 2:00 5(330m) 8(510m)
Fr, 23.02. 1:30 3(600m) 7(750m) 8(4500m)
Ortszeit Luftdruck NN (hPa) Tendenz (hPa in 3 Std.)
Fr, 23.02. 1:00 971 - 2,6
Do, 22.02. 19:00 979 - 4,7
Do, 22.02. 13:00 988 - 2,9
Do, 22.02. 7:00 992 - 1,9
Do, 22.02. 1:00 996 - 3,8
Mi, 21.02. 19:00 1004 - 3,7
Mi, 21.02. 13:00 1011 - 1,8
Mi, 21.02. 7:00 1013 + 0,4
Ortszeit Luftdruck NN (hPa) Tendenz (hPa in 3 Std.)
Fr, 23.02. 4:30 978 + 6,2
Fr, 23.02. 4:20 978 keine Meldung
Fr, 23.02. 4:10 978 keine Meldung
Fr, 23.02. 4:00 977 + 5,7
Fr, 23.02. 3:50 977 keine Meldung
Fr, 23.02. 3:40 977 keine Meldung
Fr, 23.02. 3:30 976 + 4,6
Fr, 23.02. 3:00 975 + 3,6
Fr, 23.02. 2:30 973 + 1,4
Fr, 23.02. 2:00 971 - 0,7
Fr, 23.02. 1:30 972 - 1,6
Ortszeit Schneehöhe (cm)
Fr, 23.02. 1:00 0
Do, 22.02. 19:00 0
Do, 22.02. 13:00 0
Do, 22.02. 7:00 0
Do, 22.02. 1:00 0
Mi, 21.02. 19:00 0
Mi, 21.02. 13:00 0
Mi, 21.02. 7:00 0
Ortszeit Schneehöhe (cm)
Fr, 23.02. 4:30 0
Fr, 23.02. 4:20 0
Fr, 23.02. 4:10 -
Fr, 23.02. 4:00 0
Fr, 23.02. 3:50 0
Fr, 23.02. 3:40 -
Fr, 23.02. 3:30 0
Fr, 23.02. 3:00 0
Fr, 23.02. 2:30 0
Fr, 23.02. 2:00 0
Fr, 23.02. 1:30 0
Link zu dieser Seite / Seite empfehlen

Das Wetter in ...